createdAt,value
2023-02-12T00:02:56.378Z,97.37
2023-02-12T00:13:17.740Z,96.72
2023-02-12T00:23:41.141Z,96.82
2023-02-12T00:34:02.631Z,96.97
2023-02-12T00:44:23.993Z,97.35
2023-02-12T00:54:45.462Z,97.06
2023-02-12T01:05:07.030Z,96.76
2023-02-12T01:15:28.454Z,96.80
2023-02-12T01:25:49.898Z,96.77
2023-02-12T01:36:11.339Z,96.56
2023-02-12T01:46:32.847Z,97.69
2023-02-12T01:56:54.549Z,96.93
2023-02-12T02:07:16.371Z,97.19
2023-02-12T02:17:52.927Z,97.47
2023-02-12T02:28:33.497Z,98.07
2023-02-12T02:39:05.280Z,98.96
2023-02-12T02:49:33.775Z,98.64
2023-02-12T02:59:58.311Z,98.94
2023-02-12T03:10:22.909Z,98.80
2023-02-12T03:20:53.114Z,99.13
2023-02-12T03:31:29.914Z,99.43
2023-02-12T03:42:13.595Z,99.46
2023-02-12T03:52:35.135Z,99.35
2023-02-12T04:02:56.751Z,99.76
2023-02-12T04:13:28.661Z,99.69
2023-02-12T04:23:53.758Z,100.00
2023-02-12T04:34:26.665Z,100.00
2023-02-12T04:44:48.116Z,100.00
2023-02-12T04:55:09.496Z,100.00
2023-02-12T05:05:30.890Z,99.88
2023-02-12T05:15:52.242Z,100.00
2023-02-12T05:26:14.886Z,100.00
2023-02-12T05:36:36.265Z,99.96
2023-02-12T05:46:57.633Z,99.73
2023-02-12T05:57:19.066Z,99.71
2023-02-12T06:07:40.461Z,100.00
2023-02-12T06:18:01.851Z,99.90
2023-02-12T06:28:23.421Z,100.00
2023-02-12T06:38:44.928Z,100.00
2023-02-12T06:49:06.309Z,100.00
2023-02-12T06:59:27.704Z,100.00
2023-02-12T07:09:49.093Z,100.00
2023-02-12T07:20:10.677Z,100.00
2023-02-12T07:30:32.039Z,100.00
2023-02-12T07:40:53.600Z,100.00
2023-02-12T07:51:16.147Z,100.00
2023-02-12T08:01:42.638Z,100.00
2023-02-12T08:12:04.117Z,100.00
2023-02-12T08:22:25.567Z,99.29
2023-02-12T08:32:49.078Z,99.26
2023-02-12T08:43:10.531Z,99.22
2023-02-12T08:53:31.989Z,99.11
2023-02-12T09:03:53.722Z,99.38
2023-02-12T09:14:15.993Z,97.92
2023-02-12T09:24:37.494Z,98.34
2023-02-12T09:34:58.880Z,98.32
2023-02-12T09:45:21.554Z,98.48
2023-02-12T09:55:43.424Z,98.90
2023-02-12T10:06:06.634Z,98.36
2023-02-12T10:16:36.057Z,98.25
2023-02-12T10:27:02.522Z,97.17
2023-02-12T10:37:26.981Z,97.49
2023-02-12T10:47:51.502Z,97.32
2023-02-12T10:58:23.091Z,98.70
2023-02-12T11:08:44.889Z,97.82
2023-02-12T11:19:20.661Z,98.27
2023-02-12T11:29:42.836Z,98.21
2023-02-12T11:40:04.567Z,97.96
2023-02-12T11:50:30.698Z,96.90
2023-02-12T12:00:55.533Z,96.20
2023-02-12T12:11:22.556Z,96.77
2023-02-12T12:21:54.375Z,97.30
2023-02-12T12:32:16.846Z,96.51
2023-02-12T12:42:38.249Z,95.62
2023-02-12T12:53:10.342Z,95.60
2023-02-12T13:03:34.965Z,94.59
2023-02-12T13:14:19.647Z,95.92
2023-02-12T13:24:47.463Z,93.86
2023-02-12T13:35:14.673Z,93.46
2023-02-12T13:45:51.391Z,93.00
2023-02-12T13:56:33.060Z,91.60
2023-02-12T14:06:58.687Z,92.77
2023-02-12T14:17:33.354Z,92.29
2023-02-12T14:27:57.593Z,92.23
2023-02-12T14:38:19.082Z,91.59
2023-02-12T14:49:06.072Z,91.65
2023-02-12T14:59:28.798Z,91.64
2023-02-12T15:10:09.912Z,91.42
2023-02-12T15:20:34.795Z,91.19
2023-02-12T15:30:56.637Z,91.56
2023-02-12T15:41:28.983Z,91.48
2023-02-12T15:51:50.779Z,91.41
2023-02-12T16:02:21.178Z,91.81
2023-02-12T16:12:42.650Z,91.82
2023-02-12T16:23:05.595Z,92.20
2023-02-12T16:33:34.098Z,91.75
2023-02-12T16:44:01.613Z,91.94
2023-02-12T16:54:29.261Z,92.08
2023-02-12T17:04:50.711Z,92.54
2023-02-12T17:15:17.184Z,92.83
2023-02-12T17:25:38.595Z,94.12
2023-02-12T17:36:00.460Z,94.29
2023-02-12T17:46:23.282Z,95.52
2023-02-12T17:56:44.665Z,96.05
2023-02-12T18:07:08.009Z,96.18
2023-02-12T18:17:29.577Z,96.30
2023-02-12T18:27:50.943Z,96.33
2023-02-12T18:38:12.331Z,96.03
2023-02-12T18:48:33.723Z,96.22
2023-02-12T18:58:58.946Z,95.98
2023-02-12T19:09:21.635Z,95.89
2023-02-12T19:19:43.241Z,96.04
2023-02-12T19:30:05.377Z,95.95
2023-02-12T19:40:26.741Z,95.78
2023-02-12T19:50:48.103Z,95.78
2023-02-12T20:01:11.403Z,95.96
2023-02-12T20:11:37.656Z,96.37
2023-02-12T20:22:01.425Z,96.47
2023-02-12T20:32:22.824Z,96.58
2023-02-12T20:42:44.227Z,96.88
2023-02-12T20:53:06.115Z,96.82
2023-02-12T21:03:27.507Z,96.97
2023-02-12T21:13:59.029Z,96.70
2023-02-12T21:24:25.364Z,96.70
2023-02-12T21:34:48.811Z,97.19
2023-02-12T21:45:10.259Z,96.92
2023-02-12T21:55:31.642Z,97.00
2023-02-12T22:05:53.007Z,97.50
2023-02-12T22:16:24.579Z,97.43
2023-02-12T22:26:46.110Z,97.35
2023-02-12T22:37:07.482Z,97.59
2023-02-12T22:47:32.007Z,97.58
2023-02-12T22:57:53.350Z,97.76
2023-02-12T23:08:14.746Z,97.05
2023-02-12T23:18:36.160Z,96.83
2023-02-12T23:28:58.095Z,97.08
2023-02-12T23:39:19.522Z,97.30
2023-02-12T23:49:40.986Z,97.06
